createdAt,value
2022-12-05T00:01:42.518Z,84.76
2022-12-05T00:03:44.920Z,85.04
2022-12-05T00:05:46.844Z,84.60
2022-12-05T00:07:48.358Z,84.70
2022-12-05T00:09:50.883Z,84.48
2022-12-05T00:11:52.325Z,84.40
2022-12-05T00:13:55.672Z,83.95
2022-12-05T00:15:57.209Z,84.42
2022-12-05T00:17:58.646Z,84.86
2022-12-05T00:20:00.404Z,84.83
2022-12-05T00:22:02.003Z,84.45
2022-12-05T00:24:05.969Z,84.30
2022-12-05T00:26:07.743Z,85.31
2022-12-05T00:28:09.317Z,84.92
2022-12-05T00:30:11.093Z,84.85
2022-12-05T00:32:12.632Z,84.96
2022-12-05T00:34:14.404Z,84.86
2022-12-05T00:36:27.312Z,84.91
2022-12-05T00:38:28.993Z,85.40
2022-12-05T00:40:30.621Z,84.68
2022-12-05T00:42:32.056Z,85.47
2022-12-05T00:44:33.662Z,85.88
2022-12-05T00:46:35.980Z,85.10
2022-12-05T00:48:38.271Z,85.45
2022-12-05T00:50:39.716Z,85.40
2022-12-05T00:52:41.146Z,85.79
2022-12-05T00:54:43.624Z,85.18
2022-12-05T00:56:45.953Z,85.45
2022-12-05T00:58:48.232Z,85.18
2022-12-05T01:00:49.722Z,85.13
2022-12-05T01:02:51.273Z,84.78
2022-12-05T01:04:52.745Z,85.52
2022-12-05T01:06:55.964Z,85.44
2022-12-05T01:08:58.300Z,85.49
2022-12-05T01:11:00.402Z,85.46
2022-12-05T01:13:01.819Z,85.02
2022-12-05T01:15:04.590Z,85.37
2022-12-05T01:17:06.204Z,85.32
2022-12-05T01:19:12.094Z,85.66
2022-12-05T01:21:13.848Z,85.35
2022-12-05T01:23:15.743Z,85.23
2022-12-05T01:25:17.242Z,85.28
2022-12-05T01:27:18.674Z,85.39
2022-12-05T01:29:22.129Z,85.10
2022-12-05T01:31:29.749Z,85.39
2022-12-05T01:33:31.286Z,85.04
2022-12-05T01:35:37.177Z,85.05
2022-12-05T01:37:38.608Z,85.09
2022-12-05T01:39:40.034Z,85.21
2022-12-05T01:41:48.191Z,85.36
2022-12-05T01:44:08.088Z,85.37
2022-12-05T01:46:09.597Z,85.06
2022-12-05T01:48:28.340Z,85.20
2022-12-05T01:50:29.709Z,85.42
2022-12-05T01:52:33.370Z,85.17
2022-12-05T01:54:37.904Z,85.33
2022-12-05T01:56:41.942Z,85.26
2022-12-05T01:58:44.874Z,85.80
2022-12-05T02:00:47.323Z,85.79
2022-12-05T02:02:55.491Z,85.90
2022-12-05T02:05:07.610Z,85.50
2022-12-05T02:07:09.194Z,85.46
2022-12-05T02:09:10.632Z,85.82
2022-12-05T02:11:12.607Z,86.10
2022-12-05T02:13:37.601Z,85.69
2022-12-05T02:16:04.559Z,85.90
2022-12-05T02:18:26.276Z,85.94
2022-12-05T02:20:59.374Z,85.47
2022-12-05T02:23:27.381Z,85.65
2022-12-05T02:25:28.745Z,85.46
2022-12-05T02:27:41.913Z,85.93
2022-12-05T02:29:52.424Z,85.24
2022-12-05T02:32:00.079Z,85.36
2022-12-05T02:34:19.875Z,85.82
2022-12-05T02:36:42.799Z,85.54
2022-12-05T02:39:22.779Z,86.14
2022-12-05T02:41:30.603Z,86.19
2022-12-05T02:43:49.712Z,85.71
2022-12-05T02:45:57.274Z,85.56
2022-12-05T02:47:59.910Z,86.06
2022-12-05T02:50:01.429Z,85.98
2022-12-05T02:52:06.619Z,85.45
2022-12-05T02:54:12.605Z,85.89
2022-12-05T02:56:14.931Z,86.24
2022-12-05T02:58:22.801Z,85.86
2022-12-05T03:00:24.286Z,86.14
2022-12-05T03:02:32.070Z,86.45
2022-12-05T03:04:33.621Z,85.81
2022-12-05T03:06:41.984Z,86.25
2022-12-05T03:08:58.103Z,86.11
2022-12-05T03:11:02.557Z,86.51
2022-12-05T03:13:13.881Z,85.78
2022-12-05T03:15:22.994Z,85.96
2022-12-05T03:17:30.180Z,85.96
2022-12-05T03:20:06.242Z,85.88
2022-12-05T03:22:15.315Z,85.99
2022-12-05T03:24:16.868Z,86.01
2022-12-05T03:26:24.781Z,86.22
2022-12-05T03:28:38.957Z,85.71
2022-12-05T03:30:42.328Z,85.99
2022-12-05T03:33:02.594Z,85.87
2022-12-05T03:35:07.003Z,86.19
2022-12-05T03:37:19.259Z,86.38
2022-12-05T03:39:28.581Z,85.96
2022-12-05T03:41:46.097Z,86.16
2022-12-05T03:44:01.250Z,86.06
2022-12-05T03:46:32.274Z,86.54
2022-12-05T03:48:47.980Z,86.25
2022-12-05T03:50:53.589Z,86.25
2022-12-05T03:53:20.341Z,85.87
2022-12-05T03:55:27.839Z,86.61
2022-12-05T03:57:50.142Z,85.70
2022-12-05T03:59:59.914Z,85.77
2022-12-05T04:02:07.435Z,86.21
2022-12-05T04:04:17.015Z,86.13
2022-12-05T04:06:24.132Z,86.00
2022-12-05T04:08:33.274Z,86.78
2022-12-05T04:10:48.609Z,86.97
2022-12-05T04:12:54.068Z,86.35
2022-12-05T04:14:59.986Z,86.70
2022-12-05T04:17:15.157Z,86.60
2022-12-05T04:19:28.822Z,86.51
2022-12-05T04:21:39.338Z,87.10
2022-12-05T04:23:46.285Z,86.99
2022-12-05T04:26:00.531Z,87.11
2022-12-05T04:28:27.138Z,86.85
2022-12-05T04:30:37.023Z,86.77
2022-12-05T04:32:56.899Z,86.25
2022-12-05T04:35:03.998Z,86.49
2022-12-05T04:37:12.692Z,86.65
2022-12-05T04:39:31.476Z,86.08
2022-12-05T04:41:36.356Z,86.77
2022-12-05T04:43:41.943Z,86.35
2022-12-05T04:45:44.844Z,86.09
2022-12-05T04:47:53.443Z,86.34
2022-12-05T04:49:56.105Z,86.49
2022-12-05T04:52:04.988Z,86.62
2022-12-05T04:54:27.932Z,86.65
2022-12-05T04:56:35.477Z,85.98
2022-12-05T04:58:36.961Z,86.45
2022-12-05T05:01:00.941Z,85.88
2022-12-05T05:03:25.224Z,85.96
2022-12-05T05:05:28.197Z,85.95
2022-12-05T05:07:29.819Z,86.06
2022-12-05T05:09:31.296Z,86.31
2022-12-05T05:11:35.790Z,86.31
2022-12-05T05:13:37.225Z,86.23
2022-12-05T05:15:38.706Z,86.17
2022-12-05T05:17:43.148Z,86.05
2022-12-05T05:19:44.603Z,86.35
2022-12-05T05:21:46.115Z,86.41
2022-12-05T05:23:48.030Z,86.04
2022-12-05T05:25:55.400Z,86.46
2022-12-05T05:27:57.146Z,86.47
2022-12-05T05:29:58.936Z,86.22
2022-12-05T05:32:00.520Z,85.67
2022-12-05T05:34:09.097Z,85.78
2022-12-05T05:36:13.914Z,86.03
2022-12-05T05:38:15.353Z,86.16
2022-12-05T05:40:17.311Z,85.52
2022-12-05T05:42:18.750Z,85.70
2022-12-05T05:44:20.206Z,85.51
2022-12-05T05:46:24.516Z,85.75
2022-12-05T05:48:26.000Z,85.95
2022-12-05T05:50:27.502Z,85.92
2022-12-05T05:52:28.952Z,85.67
2022-12-05T05:54:30.437Z,85.55
2022-12-05T05:56:31.959Z,86.09
2022-12-05T05:58:33.741Z,85.57
2022-12-05T06:00:35.625Z,85.59
2022-12-05T06:02:37.603Z,85.39
2022-12-05T06:04:39.198Z,85.74
2022-12-05T06:06:40.896Z,85.15
2022-12-05T06:08:43.618Z,85.65
2022-12-05T06:10:45.044Z,85.70
2022-12-05T06:12:46.571Z,86.10
2022-12-05T06:14:49.179Z,85.45
2022-12-05T06:16:50.685Z,86.05
2022-12-05T06:18:52.909Z,85.28
2022-12-05T06:20:55.748Z,86.00
2022-12-05T06:22:57.198Z,85.58
2022-12-05T06:24:58.753Z,86.27
2022-12-05T06:27:00.203Z,85.70
2022-12-05T06:29:01.719Z,85.87
2022-12-05T06:31:08.768Z,86.24
2022-12-05T06:33:11.437Z,85.85
2022-12-05T06:35:15.964Z,86.17
2022-12-05T06:37:17.394Z,85.23
2022-12-05T06:39:18.842Z,85.69
2022-12-05T06:41:21.224Z,86.06
2022-12-05T06:43:22.810Z,86.15
2022-12-05T06:45:24.489Z,86.03
2022-12-05T06:47:25.908Z,85.48
2022-12-05T06:49:36.387Z,86.19
2022-12-05T06:51:39.314Z,86.62
2022-12-05T06:53:41.538Z,85.74
2022-12-05T06:55:42.969Z,85.74
2022-12-05T06:57:44.399Z,85.28
2022-12-05T06:59:45.869Z,85.39
2022-12-05T07:01:47.350Z,86.01
2022-12-05T07:03:49.927Z,86.28
2022-12-05T07:05:51.350Z,85.92
2022-12-05T07:07:53.043Z,85.55
2022-12-05T07:09:54.604Z,86.96
2022-12-05T07:11:56.032Z,86.51
2022-12-05T07:13:57.495Z,87.47
2022-12-05T07:15:59.466Z,87.50
2022-12-05T07:18:00.969Z,88.16
2022-12-05T07:20:02.456Z,87.90
2022-12-05T07:22:04.533Z,89.13
2022-12-05T07:24:06.043Z,88.25
2022-12-05T07:26:09.417Z,88.45
2022-12-05T07:28:10.878Z,88.59
2022-12-05T07:30:12.514Z,89.43
2022-12-05T07:32:14.063Z,89.91
2022-12-05T07:34:15.515Z,89.52
2022-12-05T07:36:20.421Z,88.70
2022-12-05T07:38:21.867Z,89.10
2022-12-05T07:40:23.366Z,88.37
2022-12-05T07:42:24.827Z,89.50
2022-12-05T07:44:26.537Z,88.56
2022-12-05T07:46:29.122Z,88.27
2022-12-05T07:48:31.062Z,88.56
2022-12-05T07:50:32.498Z,86.77
2022-12-05T07:52:34.057Z,87.29
2022-12-05T07:54:35.643Z,86.57
2022-12-05T07:56:37.074Z,86.06
2022-12-05T07:58:38.516Z,86.59
2022-12-05T08:00:39.951Z,86.59
2022-12-05T08:02:41.508Z,85.94
2022-12-05T08:04:43.076Z,86.35
2022-12-05T08:06:44.588Z,85.74
2022-12-05T08:08:49.916Z,86.44
2022-12-05T08:10:51.383Z,86.02
2022-12-05T08:12:52.894Z,86.51
2022-12-05T08:14:54.338Z,85.88
2022-12-05T08:16:55.892Z,85.46
2022-12-05T08:18:59.406Z,86.13
2022-12-05T08:21:02.746Z,85.34
2022-12-05T08:23:04.251Z,85.91
2022-12-05T08:25:06.130Z,85.35
2022-12-05T08:27:07.561Z,85.28
2022-12-05T08:29:12.206Z,86.14
2022-12-05T08:31:18.374Z,86.05
2022-12-05T08:33:19.842Z,85.93
2022-12-05T08:35:21.300Z,86.41
2022-12-05T08:37:22.802Z,86.23
2022-12-05T08:39:24.544Z,86.62
2022-12-05T08:41:28.979Z,86.84
2022-12-05T08:43:31.220Z,86.95
2022-12-05T08:45:32.699Z,86.72
2022-12-05T08:47:34.158Z,86.61
2022-12-05T08:49:35.606Z,87.26
2022-12-05T08:51:37.158Z,86.23
2022-12-05T08:53:44.382Z,86.31
2022-12-05T08:55:46.398Z,85.39
2022-12-05T08:57:47.813Z,85.51
2022-12-05T08:59:49.237Z,85.99
2022-12-05T09:01:50.963Z,85.54
2022-12-05T09:03:53.303Z,85.85
2022-12-05T09:05:55.004Z,85.61
2022-12-05T09:07:57.307Z,85.30
2022-12-05T09:09:58.760Z,85.42
2022-12-05T09:12:00.959Z,85.82
2022-12-05T09:14:03.178Z,86.26
2022-12-05T09:16:10.375Z,86.19
2022-12-05T09:18:12.657Z,85.81
2022-12-05T09:20:14.476Z,85.12
2022-12-05T09:22:15.893Z,86.21
2022-12-05T09:24:17.465Z,86.29
2022-12-05T09:26:22.021Z,86.58
2022-12-05T09:28:24.000Z,85.54
2022-12-05T09:30:25.458Z,85.29
2022-12-05T09:32:27.027Z,85.11
2022-12-05T09:34:29.340Z,84.50
2022-12-05T09:36:32.067Z,85.50
2022-12-05T09:38:33.553Z,84.99
2022-12-05T09:40:41.722Z,84.85
2022-12-05T09:42:58.840Z,84.75
2022-12-05T09:45:05.936Z,84.86
2022-12-05T09:47:26.041Z,84.81
2022-12-05T09:49:30.418Z,85.58
2022-12-05T09:51:32.356Z,85.96
2022-12-05T09:53:36.829Z,85.42
2022-12-05T09:55:46.156Z,85.74
2022-12-05T09:57:52.535Z,85.10
2022-12-05T09:59:54.355Z,85.46
2022-12-05T10:02:18.472Z,85.81
2022-12-05T10:04:20.195Z,86.06
2022-12-05T10:06:29.101Z,85.01
2022-12-05T10:08:49.090Z,84.83
2022-12-05T10:11:08.376Z,84.93
2022-12-05T10:13:26.206Z,86.21
2022-12-05T10:15:30.718Z,85.89
2022-12-05T10:17:35.285Z,85.86
2022-12-05T10:19:45.047Z,85.69
2022-12-05T10:21:59.071Z,85.48
2022-12-05T10:24:11.120Z,85.99
2022-12-05T10:26:16.719Z,86.74
2022-12-05T10:28:50.620Z,86.66
2022-12-05T10:30:57.052Z,87.63
2022-12-05T10:33:06.410Z,87.86
2022-12-05T10:35:39.101Z,87.44
2022-12-05T10:37:51.980Z,87.59
2022-12-05T10:39:55.402Z,88.75
2022-12-05T10:41:56.934Z,89.48
2022-12-05T10:43:59.634Z,89.45
2022-12-05T10:46:02.405Z,89.44
2022-12-05T10:48:04.174Z,90.17
2022-12-05T10:50:19.907Z,90.49
2022-12-05T10:52:21.366Z,90.46
2022-12-05T10:54:27.074Z,90.81
2022-12-05T10:56:46.863Z,91.30
2022-12-05T10:58:56.643Z,91.58
2022-12-05T11:01:08.910Z,91.79
2022-12-05T11:03:28.528Z,91.63
2022-12-05T11:05:33.457Z,92.12
2022-12-05T11:07:43.790Z,92.10
2022-12-05T11:09:47.601Z,91.58
2022-12-05T11:12:19.149Z,92.22
2022-12-05T11:14:26.278Z,91.62
2022-12-05T11:16:34.199Z,91.50
2022-12-05T11:18:36.538Z,91.53
2022-12-05T11:20:39.978Z,91.80
2022-12-05T11:22:45.775Z,91.19
2022-12-05T11:24:50.045Z,91.55
2022-12-05T11:26:51.912Z,91.19
2022-12-05T11:28:53.353Z,91.19
2022-12-05T11:31:00.782Z,90.47
2022-12-05T11:33:19.185Z,89.98
2022-12-05T11:35:26.403Z,90.97
2022-12-05T11:37:42.984Z,90.63
2022-12-05T11:39:44.446Z,90.80
2022-12-05T11:42:13.973Z,89.81
2022-12-05T11:44:47.482Z,90.06
2022-12-05T11:47:01.067Z,89.79
2022-12-05T11:49:27.535Z,89.25
2022-12-05T11:51:49.064Z,90.07
2022-12-05T11:54:30.645Z,89.58
2022-12-05T11:56:48.119Z,90.29
2022-12-05T11:59:00.980Z,89.78
2022-12-05T12:01:27.444Z,89.59
2022-12-05T12:03:54.099Z,89.68
2022-12-05T12:06:09.182Z,89.71
2022-12-05T12:08:16.600Z,89.50
2022-12-05T12:10:28.932Z,90.03
2022-12-05T12:12:40.318Z,89.47
2022-12-05T12:14:55.142Z,89.33
2022-12-05T12:17:25.724Z,88.68
2022-12-05T12:19:27.098Z,88.46
2022-12-05T12:21:54.685Z,88.62
2022-12-05T12:24:14.906Z,88.06
2022-12-05T12:26:27.966Z,88.68
2022-12-05T12:28:41.671Z,88.24
2022-12-05T12:31:12.754Z,88.09
2022-12-05T12:33:28.292Z,88.41
2022-12-05T12:35:50.399Z,88.39
2022-12-05T12:38:17.222Z,88.85
2022-12-05T12:40:30.673Z,88.78
2022-12-05T12:43:02.212Z,89.01
2022-12-05T12:45:36.266Z,88.71
2022-12-05T12:47:49.605Z,89.01
2022-12-05T12:50:14.869Z,88.77
2022-12-05T12:52:22.631Z,88.95
2022-12-05T12:57:30.674Z,88.94
2022-12-05T12:59:34.786Z,88.94
2022-12-05T13:01:46.455Z,88.65
2022-12-05T13:03:56.819Z,89.14
2022-12-05T13:06:02.687Z,88.55
2022-12-05T13:08:13.256Z,88.78
2022-12-05T13:10:41.557Z,87.94
2022-12-05T13:12:44.316Z,88.33
2022-12-05T13:14:54.218Z,88.01
2022-12-05T13:16:58.455Z,88.04
2022-12-05T13:19:01.272Z,88.08
2022-12-05T13:21:08.930Z,87.79
2022-12-05T13:23:16.538Z,88.06
2022-12-05T13:25:21.227Z,87.64
2022-12-05T13:27:27.444Z,87.28
2022-12-05T13:29:36.504Z,87.38
2022-12-05T13:31:42.265Z,87.66
2022-12-05T13:33:45.027Z,87.38
2022-12-05T13:36:04.923Z,87.52
2022-12-05T13:38:25.253Z,87.93
2022-12-05T13:40:51.109Z,87.71
2022-12-05T13:43:12.901Z,87.98
2022-12-05T13:45:20.115Z,87.74
2022-12-05T13:47:40.297Z,88.16
2022-12-05T13:49:48.131Z,87.44
2022-12-05T13:51:50.176Z,87.61
2022-12-05T13:54:03.139Z,87.76
2022-12-05T13:56:13.587Z,86.96
2022-12-05T13:58:42.093Z,87.28
2022-12-05T14:00:43.606Z,87.90
2022-12-05T14:02:45.581Z,87.65
2022-12-05T14:04:50.881Z,87.32
2022-12-05T14:06:56.796Z,87.84
2022-12-05T14:08:58.361Z,87.33
2022-12-05T14:10:59.772Z,87.49
2022-12-05T14:13:21.272Z,87.75
2022-12-05T14:15:37.964Z,87.35
2022-12-05T14:17:44.811Z,87.22
2022-12-05T14:19:59.728Z,87.57
2022-12-05T14:22:42.397Z,87.41
2022-12-05T14:24:59.790Z,87.95
2022-12-05T14:27:10.568Z,87.55
2022-12-05T14:29:39.494Z,87.55
2022-12-05T14:32:03.962Z,87.72
2022-12-05T14:34:25.071Z,87.09
2022-12-05T14:36:30.857Z,87.68
2022-12-05T14:38:34.499Z,87.71
2022-12-05T14:40:47.388Z,87.41
2022-12-05T14:42:59.463Z,87.56
2022-12-05T14:45:03.465Z,87.74
2022-12-05T14:47:07.006Z,87.66
2022-12-05T14:49:37.548Z,87.89
2022-12-05T14:51:45.416Z,87.84
2022-12-05T14:53:48.771Z,88.02
2022-12-05T14:56:05.284Z,87.97
2022-12-05T14:58:17.753Z,87.67
2022-12-05T15:00:23.688Z,87.73
2022-12-05T15:02:33.679Z,87.75
2022-12-05T15:04:51.026Z,87.11
2022-12-05T15:07:03.097Z,87.05
2022-12-05T15:09:37.105Z,87.11
2022-12-05T15:11:39.430Z,86.76
2022-12-05T15:13:40.941Z,87.43
2022-12-05T15:15:54.548Z,87.43
2022-12-05T15:18:05.609Z,87.73
2022-12-05T15:20:40.695Z,87.37
2022-12-05T15:22:42.580Z,87.51
2022-12-05T15:24:44.033Z,87.65
2022-12-05T15:26:47.996Z,87.56
2022-12-05T15:29:06.683Z,87.75
2022-12-05T15:31:13.417Z,87.60
2022-12-05T15:33:14.959Z,87.75
2022-12-05T15:35:16.708Z,87.96
2022-12-05T15:37:23.518Z,87.96
2022-12-05T15:39:27.056Z,88.30
2022-12-05T15:41:28.532Z,88.29
2022-12-05T15:43:32.531Z,88.15
2022-12-05T15:45:33.976Z,87.92
2022-12-05T15:47:35.478Z,87.98
2022-12-05T15:49:36.947Z,88.01
2022-12-05T15:51:38.919Z,88.41
2022-12-05T15:53:45.764Z,88.28
2022-12-05T15:56:00.340Z,88.28
2022-12-05T15:58:13.447Z,88.10
2022-12-05T16:00:18.203Z,88.10
2022-12-05T16:02:29.320Z,88.22
2022-12-05T16:04:45.330Z,88.02
2022-12-05T16:06:49.799Z,88.20
2022-12-05T16:08:51.739Z,88.34
2022-12-05T16:10:53.195Z,88.64
2022-12-05T16:12:54.705Z,88.47
2022-12-05T16:15:01.455Z,88.55
2022-12-05T16:17:05.167Z,88.12
2022-12-05T16:19:21.725Z,88.52
2022-12-05T16:21:39.293Z,88.59
2022-12-05T16:23:43.367Z,88.61
2022-12-05T16:25:44.866Z,88.54
2022-12-05T16:28:17.470Z,88.23
2022-12-05T16:30:21.431Z,88.14
2022-12-05T16:32:25.734Z,88.16
2022-12-05T16:34:29.900Z,88.12
2022-12-05T16:36:31.801Z,88.14
2022-12-05T16:38:33.336Z,88.29
2022-12-05T16:40:34.837Z,88.12
2022-12-05T16:42:37.457Z,88.36
2022-12-05T16:45:02.231Z,88.31
2022-12-05T16:47:04.118Z,88.33
2022-12-05T16:49:33.260Z,88.28
2022-12-05T16:51:44.044Z,88.27
2022-12-05T16:53:50.279Z,88.42
2022-12-05T16:55:52.414Z,88.37
2022-12-05T16:57:53.924Z,88.36
2022-12-05T16:59:57.197Z,88.36
2022-12-05T17:01:58.961Z,88.37
2022-12-05T17:04:00.655Z,88.53
2022-12-05T17:06:02.197Z,88.28
2022-12-05T17:08:03.806Z,88.46
2022-12-05T17:10:06.236Z,88.48
2022-12-05T17:12:17.948Z,88.47
2022-12-05T17:14:20.118Z,88.30
2022-12-05T17:16:21.847Z,88.40
2022-12-05T17:18:28.005Z,88.71
2022-12-05T17:20:32.855Z,88.36
2022-12-05T17:22:34.285Z,88.32
2022-12-05T17:24:35.795Z,88.24
2022-12-05T17:26:37.235Z,88.09
2022-12-05T17:28:38.862Z,87.90
2022-12-05T17:30:40.604Z,87.82
2022-12-05T17:32:42.039Z,87.93
2022-12-05T17:34:43.580Z,87.86
2022-12-05T17:36:45.578Z,87.72
2022-12-05T17:38:47.089Z,87.76
2022-12-05T17:40:48.713Z,87.95
2022-12-05T17:42:50.158Z,87.93
2022-12-05T17:44:51.661Z,87.80
2022-12-05T17:46:53.488Z,87.34
2022-12-05T17:48:54.976Z,87.30
2022-12-05T17:50:59.406Z,87.33
2022-12-05T17:53:07.088Z,87.29
2022-12-05T17:55:17.945Z,87.18
2022-12-05T17:57:19.699Z,86.99
2022-12-05T17:59:21.195Z,87.11
2022-12-05T18:01:23.010Z,87.46
2022-12-05T18:03:24.656Z,87.40
2022-12-05T18:05:26.251Z,87.50
2022-12-05T18:07:27.742Z,87.91
2022-12-05T18:09:29.217Z,88.00
2022-12-05T18:11:30.999Z,87.75
2022-12-05T18:13:33.541Z,87.73
2022-12-05T18:15:39.476Z,87.87
2022-12-05T18:17:44.236Z,87.80
2022-12-05T18:19:45.875Z,87.74
2022-12-05T18:21:47.509Z,87.99
2022-12-05T18:23:49.141Z,88.28
2022-12-05T18:26:00.446Z,88.37
2022-12-05T18:28:02.140Z,88.78
2022-12-05T18:30:04.996Z,88.88
2022-12-05T18:32:06.675Z,89.48
2022-12-05T18:34:08.375Z,89.67
2022-12-05T18:36:15.869Z,90.50
2022-12-05T18:38:17.367Z,91.15
2022-12-05T18:40:18.875Z,91.52
2022-12-05T18:42:20.422Z,91.70
2022-12-05T18:44:21.895Z,92.16
2022-12-05T18:46:23.793Z,92.25
2022-12-05T18:48:38.741Z,91.91
2022-12-05T18:50:42.227Z,92.02
2022-12-05T18:52:43.679Z,92.10
2022-12-05T18:54:50.679Z,92.03
2022-12-05T18:56:59.361Z,91.96
2022-12-05T18:59:05.357Z,92.38
2022-12-05T19:01:15.318Z,92.51
2022-12-05T19:03:16.846Z,92.64
2022-12-05T19:05:18.326Z,92.86
2022-12-05T19:07:19.770Z,92.52
2022-12-05T19:09:23.708Z,92.68
2022-12-05T19:11:27.231Z,92.38
2022-12-05T19:13:28.688Z,92.13
2022-12-05T19:15:30.159Z,92.23
2022-12-05T19:17:31.615Z,92.10
2022-12-05T19:19:33.088Z,91.78
2022-12-05T19:21:35.978Z,91.95
2022-12-05T19:23:37.490Z,91.61
2022-12-05T19:25:38.952Z,91.72
2022-12-05T19:27:40.398Z,91.58
2022-12-05T19:29:41.859Z,91.56
2022-12-05T19:31:44.235Z,91.41
2022-12-05T19:33:47.937Z,91.36
2022-12-05T19:35:49.395Z,91.44
2022-12-05T19:37:50.843Z,91.63
2022-12-05T19:39:52.414Z,91.41
2022-12-05T19:41:55.179Z,91.63
2022-12-05T19:44:01.557Z,91.54
2022-12-05T19:46:09.249Z,91.34
2022-12-05T19:48:11.030Z,91.15
2022-12-05T19:50:12.638Z,91.25
2022-12-05T19:52:17.848Z,91.43
2022-12-05T19:54:21.846Z,91.96
2022-12-05T19:56:24.987Z,91.74
2022-12-05T19:58:26.556Z,91.59
2022-12-05T20:00:28.171Z,91.76
2022-12-05T20:02:29.638Z,92.02
2022-12-05T20:04:31.283Z,92.02
2022-12-05T20:06:35.350Z,92.36
2022-12-05T20:08:38.365Z,92.83
2022-12-05T20:10:40.042Z,92.92
2022-12-05T20:12:41.520Z,93.19
2022-12-05T20:14:42.971Z,93.55
2022-12-05T20:16:44.700Z,93.64
2022-12-05T20:18:46.834Z,93.90
2022-12-05T20:20:57.298Z,93.91
2022-12-05T20:22:58.917Z,94.08
2022-12-05T20:25:00.887Z,94.66
2022-12-05T20:27:02.407Z,94.47
2022-12-05T20:29:05.409Z,94.87
2022-12-05T20:31:16.864Z,94.96
2022-12-05T20:33:18.379Z,95.05
2022-12-05T20:35:24.180Z,95.32
2022-12-05T20:37:28.717Z,95.17
2022-12-05T20:39:33.007Z,95.31
2022-12-05T20:41:35.324Z,95.67
2022-12-05T20:43:37.591Z,95.90
2022-12-05T20:45:39.279Z,96.29
2022-12-05T20:47:40.769Z,96.31
2022-12-05T20:49:42.350Z,96.25
2022-12-05T20:51:45.936Z,96.23
2022-12-05T20:53:47.485Z,96.84
2022-12-05T20:55:48.983Z,96.87
2022-12-05T20:57:50.562Z,97.13
2022-12-05T20:59:52.119Z,97.34
2022-12-05T21:01:54.564Z,97.21
2022-12-05T21:03:56.353Z,97.74
2022-12-05T21:05:58.573Z,97.73
2022-12-05T21:08:00.179Z,97.76
2022-12-05T21:10:07.747Z,98.16
2022-12-05T21:12:09.864Z,98.32
2022-12-05T21:14:11.956Z,98.33
2022-12-05T21:16:16.663Z,98.43
2022-12-05T21:18:20.638Z,98.83
2022-12-05T21:20:22.179Z,98.71
2022-12-05T21:22:23.790Z,98.93
2022-12-05T21:24:25.462Z,99.19
2022-12-05T21:26:28.881Z,99.64
2022-12-05T21:28:32.345Z,99.34
2022-12-05T21:30:34.340Z,99.82
2022-12-05T21:32:35.840Z,99.59
2022-12-05T21:34:37.823Z,99.69
2022-12-05T21:36:39.517Z,100.00
2022-12-05T21:38:41.019Z,100.00
2022-12-05T21:40:42.961Z,100.00
2022-12-05T21:42:44.407Z,99.99
2022-12-05T21:44:46.222Z,100.00
2022-12-05T21:46:48.719Z,100.00
2022-12-05T21:48:50.270Z,100.00
2022-12-05T21:50:52.439Z,100.00
2022-12-05T21:52:53.888Z,100.00
2022-12-05T21:54:55.353Z,100.00
2022-12-05T21:56:56.804Z,100.00
2022-12-05T21:58:58.240Z,100.00
2022-12-05T22:01:00.218Z,100.00
2022-12-05T22:03:01.854Z,100.00
2022-12-05T22:05:03.598Z,100.00
2022-12-05T22:07:05.069Z,100.00
2022-12-05T22:09:06.552Z,100.00
2022-12-05T22:11:19.786Z,100.00
2022-12-05T22:13:21.388Z,100.00
2022-12-05T22:15:22.841Z,100.00
2022-12-05T22:17:24.297Z,100.00
2022-12-05T22:19:25.763Z,100.00
2022-12-05T22:21:28.141Z,100.00
2022-12-05T22:23:29.638Z,100.00
2022-12-05T22:25:31.086Z,100.00
2022-12-05T22:27:32.591Z,100.00
2022-12-05T22:29:34.114Z,100.00
2022-12-05T22:31:35.660Z,100.00
2022-12-05T22:33:37.717Z,100.00
2022-12-05T22:35:39.157Z,100.00
2022-12-05T22:37:40.616Z,100.00
2022-12-05T22:39:42.098Z,100.00
2022-12-05T22:41:43.589Z,100.00
2022-12-05T22:43:46.874Z,100.00
2022-12-05T22:45:48.562Z,100.00
2022-12-05T22:47:50.026Z,100.00
2022-12-05T22:49:51.511Z,100.00
2022-12-05T22:51:52.960Z,100.00
2022-12-05T22:53:54.478Z,100.00
2022-12-05T22:56:02.382Z,100.00
2022-12-05T22:58:03.840Z,100.00
2022-12-05T23:00:06.571Z,100.00
2022-12-05T23:02:08.013Z,100.00
2022-12-05T23:04:12.423Z,100.00
2022-12-05T23:06:16.572Z,100.00
2022-12-05T23:08:18.202Z,100.00
2022-12-05T23:10:19.725Z,100.00
2022-12-05T23:12:21.170Z,100.00
2022-12-05T23:14:22.609Z,100.00
2022-12-05T23:16:26.443Z,100.00
2022-12-05T23:18:27.964Z,100.00
2022-12-05T23:20:29.455Z,100.00
2022-12-05T23:22:30.893Z,100.00
2022-12-05T23:24:32.403Z,100.00
2022-12-05T23:26:37.018Z,100.00
2022-12-05T23:28:38.555Z,100.00
2022-12-05T23:30:39.995Z,100.00
2022-12-05T23:32:41.460Z,100.00
2022-12-05T23:34:42.911Z,100.00
2022-12-05T23:36:44.557Z,100.00
2022-12-05T23:38:46.311Z,100.00
2022-12-05T23:41:06.007Z,100.00
2022-12-05T23:43:07.460Z,100.00
2022-12-05T23:45:09.780Z,100.00
2022-12-05T23:47:11.382Z,100.00
2022-12-05T23:49:12.956Z,100.00
2022-12-05T23:51:20.903Z,100.00
2022-12-05T23:53:22.347Z,100.00
2022-12-05T23:55:23.827Z,100.00
2022-12-05T23:57:25.260Z,100.00
2022-12-05T23:59:26.792Z,100.00
